AKL weather

Auckland International Airport
Auckland, Auckland Region, New Zealand

Public forecast

Using degrees Celsius for public forecast. Weather courtesy of forecast.io.

Current aviation weather report (METAR) for Auckland International Airport

Retrieved 2019/10/19 20:30 UTC (20 minutes ago):

NZAA 192030Z AUTO 26009KT 9999 FEW028/// OVC039/// 15/09 Q1018 NOSIG

Aviation forecast (TAF) for Auckland International Airport

Retrieved 2019/10/19 18:04 UTC (3 hours ago):

TAF NZAA 191702Z 1918/2018 25010KT 9999 SCT020 BKN030 BECMG 2009/2011 32005KT